sim
Sign-in with your pilot id or email,
or register
Callsign
Passwort

Schedule Details

Flight Number: OEO6743
Departure: Seattle Tacoma International Airport (KSEA) at 23:45
Arrival: Munich Airport (EDDM) at 10:00

Weather Information
Getting current METAR information for KSEA 240353Z 19013G20KT 10SM FEW009 BKN028 OVC046 16/14 A2975 RMK AO2 RAE12 SLP078 P0003 T01560139
Getting current METAR information for EDDM 240350Z VRB01KT CAVOK 10/10 Q1009 NOSIG

Schedule Frequency

Route Map